Time;durP1;ratioP1;P1;durP2;ratioP2;P2;SDS_P1;SDS_P2;PMS_P1;PMS_P2;Temp;Humidity;BMP_temperature;BMP_pressure;BME280_temperature;BME280_humidity;BME280_pressure;Samples;Min_cycle;Max_cycle;Signal;HPM_P1;HPM_P2
2021/08/19 00:01:28;;;;;;;2.85;1.80;;;;;;;;;;5002467;28;20417;-60
2021/08/19 00:03:54;;;;;;;2.22;1.50;;;;;;;;;;5008639;28;21127;-57
2021/08/19 00:06:20;;;;;;;2.88;1.88;;;;;;;;;;5010935;28;20447;-60
2021/08/19 00:08:46;;;;;;;2.58;2.15;;;;;;;;;;5008064;28;20852;-60
2021/08/19 00:11:12;;;;;;;2.40;1.50;;;;;;;;;;5006565;28;20449;-60
2021/08/19 00:13:39;;;;;;;7.72;2.25;;;;;;;;;;4994870;28;20505;-61
2021/08/19 00:16:07;;;;;;;3.45;2.17;;;;;;;;;;5004681;28;20400;-61
2021/08/19 00:18:33;;;;;;;3.85;1.90;;;;;;;;;;4997249;28;20417;-61
2021/08/19 00:20:59;;;;;;;3.75;2.30;;;;;;;;;;5010730;28;20447;-61
2021/08/19 00:23:25;;;;;;;3.25;2.00;;;;;;;;;;5006088;28;20897;-61
2021/08/19 00:25:51;;;;;;;3.65;2.47;;;;;;;;;;5005314;28;20406;-61
2021/08/19 00:28:17;;;;;;;5.18;2.75;;;;;;;;;;4997158;28;20406;-61
2021/08/19 00:30:43;;;;;;;4.43;2.75;;;;;;;;;;5002105;28;20950;-62
2021/08/19 00:33:10;;;;;;;5.10;2.90;;;;;;;;;;5006183;28;20416;-62
2021/08/19 00:35:37;;;;;;;4.80;3.00;;;;;;;;;;5009814;28;20868;-61
2021/08/19 00:38:03;;;;;;;4.10;2.88;;;;;;;;;;5005239;28;20484;-61
2021/08/19 00:40:29;;;;;;;3.78;2.55;;;;;;;;;;5001009;28;20501;-61
2021/08/19 00:42:56;;;;;;;4.50;3.10;;;;;;;;;;5005284;28;20546;-61
2021/08/19 00:45:22;;;;;;;4.40;2.22;;;;;;;;;;5005864;28;20389;-60
2021/08/19 00:47:48;;;;;;;4.32;2.78;;;;;;;;;;5012765;28;20459;-61
2021/08/19 00:50:14;;;;;;;5.53;3.00;;;;;;;;;;5012444;28;20399;-59
2021/08/19 00:52:41;;;;;;;4.07;2.67;;;;;;;;;;4999630;28;20403;-60
2021/08/19 00:55:07;;;;;;;4.43;2.75;;;;;;;;;;4996174;28;20390;-60
2021/08/19 00:57:33;;;;;;;3.97;2.78;;;;;;;;;;5008554;28;20409;-60
2021/08/19 00:59:59;;;;;;;5.10;3.42;;;;;;;;;;5013501;28;20456;-60
2021/08/19 01:02:25;;;;;;;3.90;2.70;;;;;;;;;;5011898;28;20436;-61
2021/08/19 01:04:52;;;;;;;3.72;2.42;;;;;;;;;;5013660;28;20486;-61
2021/08/19 01:07:18;;;;;;;3.85;2.78;;;;;;;;;;5026376;28;20515;-61
2021/08/19 01:09:44;;;;;;;4.32;3.22;;;;;;;;;;5013497;28;20490;-61
2021/08/19 01:12:11;;;;;;;5.15;3.15;;;;;;;;;;5013646;28;20464;-61
2021/08/19 01:14:38;;;;;;;4.45;2.92;;;;;;;;;;5013208;28;20393;-60
2021/08/19 01:17:10;;;;;;;4.80;3.03;;;;;;;;;;5008414;28;20497;-61
2021/08/19 01:19:37;;;;;;;8.20;3.17;;;;;;;;;;5006508;28;20919;-61
2021/08/19 01:22:03;;;;;;;5.15;2.70;;;;;;;;;;5011524;28;20421;-61
2021/08/19 01:24:29;;;;;;;4.13;2.97;;;;;;;;;;5009923;28;20503;-60
2021/08/19 01:26:55;;;;;;;4.28;2.95;;;;;;;;;;5013282;28;20944;-61
2021/08/19 01:29:21;;;;;;;5.53;3.38;;;;;;;;;;5002412;28;20385;-60
2021/08/19 01:31:58;;;;;;;5.10;3.77;;;;;;;;;;5011375;28;20409;-60
2021/08/19 01:34:24;;;;;;;4.18;2.83;;;;;;;;;;5013063;28;20399;-60
2021/08/19 01:36:50;;;;;;;3.83;2.50;;;;;;;;;;5011675;28;20405;-60
2021/08/19 01:39:16;;;;;;;4.22;2.83;;;;;;;;;;5009247;28;20396;-60
2021/08/19 01:41:42;;;;;;;4.13;2.85;;;;;;;;;;5012085;28;20756;-60
2021/08/19 01:44:08;;;;;;;4.30;2.83;;;;;;;;;;5013211;28;20393;-59
2021/08/19 01:46:34;;;;;;;8.15;3.15;;;;;;;;;;5011309;28;20397;-60
2021/08/19 01:49:02;;;;;;;3.88;2.65;;;;;;;;;;5013046;28;20386;-60
2021/08/19 01:51:28;;;;;;;3.30;2.30;;;;;;;;;;4996203;28;20393;-60
2021/08/19 01:53:54;;;;;;;4.73;3.00;;;;;;;;;;5021327;28;20443;-61
2021/08/19 01:56:24;;;;;;;6.43;3.00;;;;;;;;;;5005990;28;20489;-61
2021/08/19 01:58:51;;;;;;;4.63;2.80;;;;;;;;;;5012887;28;20393;-61
2021/08/19 02:01:20;;;;;;;4.57;2.90;;;;;;;;;;5011639;28;20908;-61
2021/08/19 02:03:46;;;;;;;3.80;2.78;;;;;;;;;;5011302;28;20897;-61
2021/08/19 02:06:12;;;;;;;4.43;2.60;;;;;;;;;;5010931;28;20560;-61
2021/08/19 02:08:38;;;;;;;3.78;2.42;;;;;;;;;;5008895;28;20401;-61
2021/08/19 02:11:04;;;;;;;4.13;2.42;;;;;;;;;;5010749;28;20421;-60
2021/08/19 02:13:30;;;;;;;3.85;2.50;;;;;;;;;;5012575;28;20499;-61
2021/08/19 02:15:56;;;;;;;3.73;2.67;;;;;;;;;;5003436;28;20451;-61
2021/08/19 02:18:22;;;;;;;4.10;2.40;;;;;;;;;;5012235;28;20401;-61
2021/08/19 02:20:48;;;;;;;3.83;2.65;;;;;;;;;;5009408;28;20396;-61
2021/08/19 02:23:14;;;;;;;4.40;2.80;;;;;;;;;;5000102;28;20787;-60
2021/08/19 02:25:40;;;;;;;3.78;2.55;;;;;;;;;;5002843;28;20502;-60
2021/08/19 02:28:06;;;;;;;3.83;2.37;;;;;;;;;;5004302;28;20393;-61
2021/08/19 02:30:32;;;;;;;3.50;2.50;;;;;;;;;;5004766;28;21345;-58
2021/08/19 02:32:58;;;;;;;3.25;2.15;;;;;;;;;;5005075;28;20445;-59
2021/08/19 02:35:25;;;;;;;3.15;2.50;;;;;;;;;;5008185;28;20907;-61
2021/08/19 02:37:51;;;;;;;4.35;2.47;;;;;;;;;;5008079;28;20396;-61
2021/08/19 02:40:17;;;;;;;3.83;2.42;;;;;;;;;;5012191;28;20834;-61
2021/08/19 02:42:43;;;;;;;5.27;2.20;;;;;;;;;;5004385;28;20429;-61
2021/08/19 02:45:09;;;;;;;3.60;2.20;;;;;;;;;;5011972;28;20396;-61
2021/08/19 02:47:38;;;;;;;3.42;2.20;;;;;;;;;;5011769;28;20393;-61
2021/08/19 02:50:04;;;;;;;3.97;2.50;;;;;;;;;;5012008;28;20473;-61
2021/08/19 02:52:30;;;;;;;2.97;2.13;;;;;;;;;;5009678;28;20412;-61
2021/08/19 02:54:56;;;;;;;3.50;2.22;;;;;;;;;;5002996;28;20392;-61
2021/08/19 02:57:22;;;;;;;3.42;2.20;;;;;;;;;;5007858;28;20425;-61
2021/08/19 02:59:48;;;;;;;4.47;3.08;;;;;;;;;;5011654;28;20876;-61
2021/08/19 03:02:14;;;;;;;2.63;1.93;;;;;;;;;;5008199;28;20515;-61
2021/08/19 03:04:41;;;;;;;3.92;2.22;;;;;;;;;;5011037;28;20408;-60
2021/08/19 03:07:09;;;;;;;4.40;2.67;;;;;;;;;;5007962;28;20733;-61
2021/08/19 03:09:35;;;;;;;3.47;2.25;;;;;;;;;;5002205;28;20416;-60
2021/08/19 03:12:01;;;;;;;4.80;2.72;;;;;;;;;;5010610;28;20746;-60
2021/08/19 03:14:27;;;;;;;3.72;2.40;;;;;;;;;;5009924;28;20412;-61
2021/08/19 03:16:53;;;;;;;3.73;2.53;;;;;;;;;;5007983;28;20916;-59
2021/08/19 03:19:19;;;;;;;5.22;2.83;;;;;;;;;;5009609;28;20444;-60
2021/08/19 03:21:45;;;;;;;3.20;2.15;;;;;;;;;;5006990;28;20420;-61
2021/08/19 03:24:13;;;;;;;4.05;2.63;;;;;;;;;;5006727;28;20412;-60
2021/08/19 03:26:39;;;;;;;4.88;3.00;;;;;;;;;;5009120;28;20396;-60
2021/08/19 03:29:05;;;;;;;6.07;2.80;;;;;;;;;;5010761;28;20395;-61
2021/08/19 03:31:31;;;;;;;4.82;2.97;;;;;;;;;;5006889;28;20397;-61
2021/08/19 03:33:57;;;;;;;4.30;2.83;;;;;;;;;;5008870;28;20463;-61
2021/08/19 03:36:24;;;;;;;5.65;2.70;;;;;;;;;;4996591;28;20414;-61
2021/08/19 03:38:50;;;;;;;3.70;2.55;;;;;;;;;;5001510;28;20401;-61
2021/08/19 03:41:16;;;;;;;3.85;2.40;;;;;;;;;;5003693;28;20440;-60
2021/08/19 03:43:45;;;;;;;3.87;2.40;;;;;;;;;;5001723;28;20394;-61
2021/08/19 03:46:11;;;;;;;3.30;2.20;;;;;;;;;;5004647;28;20910;-59
2021/08/19 03:48:37;;;;;;;4.18;2.78;;;;;;;;;;4997420;28;20402;-61
2021/08/19 03:51:03;;;;;;;4.07;2.40;;;;;;;;;;5004577;28;20514;-59
2021/08/19 03:53:29;;;;;;;4.38;2.20;;;;;;;;;;5003262;28;20406;-60
2021/08/19 03:55:55;;;;;;;3.50;2.28;;;;;;;;;;4997899;28;20424;-59
2021/08/19 03:58:21;;;;;;;4.23;2.53;;;;;;;;;;5010312;28;20388;-60
2021/08/19 04:00:50;;;;;;;3.70;2.25;;;;;;;;;;5008392;28;20511;-59
2021/08/19 04:03:16;;;;;;;3.97;2.20;;;;;;;;;;5001507;28;20438;-61
2021/08/19 04:05:42;;;;;;;3.20;1.80;;;;;;;;;;5007559;28;20408;-60
2021/08/19 04:08:08;;;;;;;3.10;2.03;;;;;;;;;;5009746;28;20392;-60
2021/08/19 04:10:34;;;;;;;2.30;1.70;;;;;;;;;;5003560;28;20423;-60
2021/08/19 04:13:00;;;;;;;3.08;1.85;;;;;;;;;;5010452;28;20396;-60
2021/08/19 04:15:26;;;;;;;4.70;1.85;;;;;;;;;;5008492;28;20450;-60
2021/08/19 04:17:52;;;;;;;3.03;1.73;;;;;;;;;;5008242;28;20448;-61
2021/08/19 04:20:19;;;;;;;3.83;2.28;;;;;;;;;;5010562;28;20436;-61
2021/08/19 04:22:45;;;;;;;2.95;2.05;;;;;;;;;;5005258;28;20495;-61
2021/08/19 04:25:11;;;;;;;3.60;2.33;;;;;;;;;;5011135;28;20499;-60
2021/08/19 04:27:38;;;;;;;3.27;2.17;;;;;;;;;;5008122;28;20436;-60
2021/08/19 04:30:04;;;;;;;3.05;2.03;;;;;;;;;;5008835;28;20411;-61
2021/08/19 04:32:30;;;;;;;3.45;2.22;;;;;;;;;;5022191;28;20746;-61
2021/08/19 04:34:56;;;;;;;2.85;1.90;;;;;;;;;;5006971;28;20470;-61
2021/08/19 04:37:22;;;;;;;3.65;2.30;;;;;;;;;;5006834;28;20409;-61
2021/08/19 04:39:49;;;;;;;3.55;2.42;;;;;;;;;;5008085;28;20855;-61
2021/08/19 04:42:15;;;;;;;3.63;2.30;;;;;;;;;;5008334;28;20782;-59
2021/08/19 04:44:41;;;;;;;3.42;2.20;;;;;;;;;;5010978;28;20400;-60
2021/08/19 04:47:07;;;;;;;4.15;2.90;;;;;;;;;;5009161;28;20525;-61
2021/08/19 04:49:33;;;;;;;3.60;2.45;;;;;;;;;;5009794;28;20401;-61
2021/08/19 04:51:59;;;;;;;4.05;2.78;;;;;;;;;;5005441;28;20436;-60
2021/08/19 04:54:25;;;;;;;3.47;2.40;;;;;;;;;;5006468;28;20443;-59
2021/08/19 04:56:51;;;;;;;4.03;2.50;;;;;;;;;;5005445;28;20461;-59
2021/08/19 04:59:17;;;;;;;5.13;2.97;;;;;;;;;;5007481;28;20813;-60
2021/08/19 05:01:43;;;;;;;4.70;2.95;;;;;;;;;;5004972;28;20416;-61
2021/08/19 05:04:09;;;;;;;4.30;2.72;;;;;;;;;;5006247;28;20722;-61
2021/08/19 05:06:36;;;;;;;3.42;2.42;;;;;;;;;;5007123;28;20455;-61
2021/08/19 05:09:04;;;;;;;4.47;2.60;;;;;;;;;;5010314;28;20416;-61
2021/08/19 05:11:30;;;;;;;6.20;3.20;;;;;;;;;;5001544;28;20500;-61
2021/08/19 05:13:58;;;;;;;5.90;3.20;;;;;;;;;;5004012;28;20491;-61
2021/08/19 05:16:24;;;;;;;4.10;2.63;;;;;;;;;;5003757;28;20415;-61
2021/08/19 05:18:50;;;;;;;4.40;2.70;;;;;;;;;;5011873;28;21011;-61
2021/08/19 05:21:16;;;;;;;5.15;2.75;;;;;;;;;;5008351;28;20412;-61
2021/08/19 05:23:42;;;;;;;4.05;2.55;;;;;;;;;;5008833;28;20425;-61
2021/08/19 05:26:08;;;;;;;3.92;2.60;;;;;;;;;;5000692;28;20744;-61
2021/08/19 05:28:34;;;;;;;4.00;2.40;;;;;;;;;;4995134;28;20405;-60
2021/08/19 05:31:00;;;;;;;3.38;2.35;;;;;;;;;;5002994;28;20729;-61
2021/08/19 05:33:26;;;;;;;4.85;2.75;;;;;;;;;;5008008;28;20498;-61
2021/08/19 05:35:52;;;;;;;5.22;2.63;;;;;;;;;;5000034;28;20402;-60
2021/08/19 05:38:18;;;;;;;5.43;3.03;;;;;;;;;;5013975;28;20427;-60
2021/08/19 05:40:44;;;;;;;5.10;2.60;;;;;;;;;;5021018;28;20416;-60
2021/08/19 05:43:10;;;;;;;4.28;2.80;;;;;;;;;;5011555;28;20435;-60
2021/08/19 05:45:36;;;;;;;5.30;2.65;;;;;;;;;;5001352;28;20397;-61
2021/08/19 05:48:02;;;;;;;4.43;2.22;;;;;;;;;;5005917;28;20387;-60
2021/08/19 05:50:29;;;;;;;4.03;2.58;;;;;;;;;;5007743;28;20430;-60
2021/08/19 05:52:55;;;;;;;4.18;2.58;;;;;;;;;;5005530;28;20882;-60
2021/08/19 05:55:21;;;;;;;3.47;2.30;;;;;;;;;;5001573;28;20470;-61
2021/08/19 05:57:47;;;;;;;4.63;2.42;;;;;;;;;;5005762;28;20389;-61
2021/08/19 06:00:14;;;;;;;3.40;2.35;;;;;;;;;;5009290;28;21175;-61
2021/08/19 06:02:40;;;;;;;2.85;2.22;;;;;;;;;;4999830;28;20381;-61
2021/08/19 06:05:07;;;;;;;2.80;2.05;;;;;;;;;;5006440;28;20405;-61
2021/08/19 06:07:33;;;;;;;3.78;2.10;;;;;;;;;;5007231;28;20420;-61
2021/08/19 06:09:59;;;;;;;3.83;2.13;;;;;;;;;;4974385;28;975503;-60
2021/08/19 06:12:25;;;;;;;3.38;2.28;;;;;;;;;;5010416;28;20401;-58
2021/08/19 06:14:51;;;;;;;2.70;1.80;;;;;;;;;;5007445;28;20467;-59
2021/08/19 06:17:17;;;;;;;3.00;2.00;;;;;;;;;;5004029;28;20407;-60
2021/08/19 06:19:43;;;;;;;2.90;1.83;;;;;;;;;;5000441;28;20487;-60
2021/08/19 06:22:09;;;;;;;3.55;2.17;;;;;;;;;;5005305;28;20421;-61
2021/08/19 06:24:35;;;;;;;3.78;2.05;;;;;;;;;;5005552;28;20413;-61
2021/08/19 06:27:01;;;;;;;2.70;1.60;;;;;;;;;;5006593;28;20879;-61
2021/08/19 06:29:28;;;;;;;3.00;2.10;;;;;;;;;;4992664;28;20503;-61
2021/08/19 06:31:53;;;;;;;3.17;1.75;;;;;;;;;;5009170;28;20455;-61
2021/08/19 06:34:20;;;;;;;3.75;1.92;;;;;;;;;;5012188;28;20384;-60
2021/08/19 06:36:46;;;;;;;3.47;1.95;;;;;;;;;;5010789;28;20743;-60
2021/08/19 06:39:12;;;;;;;2.92;1.63;;;;;;;;;;5010991;28;20849;-60
2021/08/19 06:41:38;;;;;;;3.40;2.28;;;;;;;;;;5008863;28;20472;-61
2021/08/19 06:44:04;;;;;;;3.92;1.70;;;;;;;;;;5002647;28;20391;-61
2021/08/19 06:46:30;;;;;;;2.63;1.60;;;;;;;;;;5005683;28;20405;-61
2021/08/19 06:48:56;;;;;;;3.10;1.63;;;;;;;;;;5012102;28;20851;-61
2021/08/19 06:51:22;;;;;;;3.90;1.98;;;;;;;;;;5002127;28;20401;-58
2021/08/19 06:53:48;;;;;;;2.65;1.65;;;;;;;;;;5001994;28;20498;-61
2021/08/19 06:56:14;;;;;;;4.28;2.30;;;;;;;;;;5005465;28;20937;-60
2021/08/19 06:58:40;;;;;;;4.15;1.92;;;;;;;;;;5002581;28;20389;-60
2021/08/19 07:01:06;;;;;;;4.10;1.90;;;;;;;;;;5011462;28;20416;-59
2021/08/19 07:03:32;;;;;;;2.80;1.67;;;;;;;;;;5008493;28;20401;-59
2021/08/19 07:05:58;;;;;;;3.50;2.15;;;;;;;;;;5005308;28;20413;-60
2021/08/19 07:08:24;;;;;;;4.60;2.00;;;;;;;;;;5010331;28;20417;-60
2021/08/19 07:10:50;;;;;;;3.15;2.00;;;;;;;;;;4998685;28;20408;-59
2021/08/19 07:13:16;;;;;;;4.03;2.10;;;;;;;;;;5001652;28;20798;-60
2021/08/19 07:15:44;;;;;;;3.38;2.00;;;;;;;;;;5005224;28;20402;-60
2021/08/19 07:18:10;;;;;;;3.90;1.73;;;;;;;;;;5002648;28;20852;-60
2021/08/19 07:20:36;;;;;;;2.90;2.00;;;;;;;;;;5002178;28;20495;-60
2021/08/19 07:23:02;;;;;;;3.33;1.38;;;;;;;;;;5011932;28;20395;-60
2021/08/19 07:25:28;;;;;;;3.53;2.00;;;;;;;;;;5004978;28;20405;-61
2021/08/19 07:27:54;;;;;;;3.50;1.90;;;;;;;;;;5000487;28;20449;-61
2021/08/19 07:30:20;;;;;;;3.08;1.60;;;;;;;;;;5009009;28;20389;-61
2021/08/19 07:32:46;;;;;;;3.75;2.28;;;;;;;;;;5010503;28;20450;-60
2021/08/19 07:35:12;;;;;;;2.72;1.67;;;;;;;;;;5011297;28;20392;-61
2021/08/19 07:37:45;;;;;;;3.67;1.85;;;;;;;;;;5008623;28;20428;-61
2021/08/19 07:40:12;;;;;;;3.75;1.90;;;;;;;;;;5006512;28;20385;-61
2021/08/19 07:42:39;;;;;;;3.67;2.00;;;;;;;;;;5003397;28;20423;-61
2021/08/19 07:45:05;;;;;;;5.00;2.30;;;;;;;;;;4998385;28;20887;-61
2021/08/19 07:47:31;;;;;;;3.53;1.80;;;;;;;;;;4999159;28;20906;-61
2021/08/19 07:49:57;;;;;;;3.83;1.80;;;;;;;;;;5004740;28;20893;-59
2021/08/19 07:52:24;;;;;;;3.75;2.13;;;;;;;;;;4993525;28;20402;-59
2021/08/19 07:54:49;;;;;;;3.60;2.28;;;;;;;;;;5039829;28;20411;-60
2021/08/19 07:57:15;;;;;;;4.13;2.13;;;;;;;;;;4999136;28;20843;-60
2021/08/19 07:59:41;;;;;;;5.18;2.22;;;;;;;;;;5009829;28;20849;-61
2021/08/19 08:02:07;;;;;;;2.83;1.67;;;;;;;;;;4998860;28;20414;-59
2021/08/19 08:04:33;;;;;;;3.13;1.60;;;;;;;;;;4997640;28;20392;-59
2021/08/19 08:06:59;;;;;;;3.00;1.77;;;;;;;;;;4998540;28;20390;-58
2021/08/19 08:09:25;;;;;;;3.45;1.65;;;;;;;;;;5001144;28;20416;-58
2021/08/19 08:11:52;;;;;;;3.23;1.50;;;;;;;;;;5010785;28;20450;-58
2021/08/19 08:14:18;;;;;;;3.53;1.90;;;;;;;;;;5004758;28;20386;-60
2021/08/19 08:16:44;;;;;;;3.30;1.80;;;;;;;;;;5004206;28;20741;-60
2021/08/19 08:19:10;;;;;;;3.70;2.20;;;;;;;;;;5004188;28;20382;-61
2021/08/19 08:21:38;;;;;;;3.28;1.75;;;;;;;;;;5004213;28;20447;-61
2021/08/19 08:24:05;;;;;;;3.20;1.90;;;;;;;;;;5010269;28;20393;-61
2021/08/19 08:26:30;;;;;;;3.33;1.80;;;;;;;;;;5010333;28;20393;-60
2021/08/19 08:28:57;;;;;;;2.60;1.60;;;;;;;;;;4991062;28;20388;-60
2021/08/19 08:31:23;;;;;;;3.17;2.05;;;;;;;;;;5004243;28;20883;-61
2021/08/19 08:33:51;;;;;;;3.33;1.95;;;;;;;;;;5010023;28;20392;-61
2021/08/19 08:36:17;;;;;;;3.70;1.50;;;;;;;;;;5010706;28;20777;-61
2021/08/19 08:38:44;;;;;;;2.55;1.45;;;;;;;;;;4999127;28;20541;-61
2021/08/19 08:41:11;;;;;;;3.30;2.00;;;;;;;;;;5002651;28;20408;-59
2021/08/19 08:43:37;;;;;;;3.30;2.10;;;;;;;;;;5010364;28;20463;-60
2021/08/19 08:46:06;;;;;;;4.93;1.90;;;;;;;;;;4997959;28;20410;-60
2021/08/19 08:48:32;;;;;;;3.15;1.60;;;;;;;;;;4997698;28;20468;-60
2021/08/19 08:50:58;;;;;;;4.28;2.08;;;;;;;;;;4997369;28;20771;-59
2021/08/19 08:53:24;;;;;;;3.85;1.85;;;;;;;;;;5003730;28;20390;-59
2021/08/19 08:55:50;;;;;;;3.33;1.92;;;;;;;;;;5004103;28;20385;-57
2021/08/19 08:58:17;;;;;;;3.33;2.00;;;;;;;;;;4997407;28;20401;-60
2021/08/19 09:00:44;;;;;;;2.90;1.60;;;;;;;;;;5010014;28;20752;-60
2021/08/19 09:03:14;;;;;;;3.92;1.67;;;;;;;;;;5012070;28;20592;-59
2021/08/19 09:05:41;;;;;;;2.22;1.23;;;;;;;;;;5001155;28;20533;-60
2021/08/19 09:08:12;;;;;;;3.30;1.60;;;;;;;;;;5005547;28;20514;-61
2021/08/19 09:10:38;;;;;;;2.80;1.50;;;;;;;;;;5010148;28;21126;-61
2021/08/19 09:13:08;;;;;;;2.72;1.52;;;;;;;;;;5009866;28;20417;-61
2021/08/19 09:15:34;;;;;;;2.08;1.42;;;;;;;;;;5013863;28;20949;-61
2021/08/19 09:18:02;;;;;;;3.17;1.33;;;;;;;;;;5003684;28;20386;-61
2021/08/19 09:20:33;;;;;;;3.22;1.50;;;;;;;;;;5007503;28;20390;-60
2021/08/19 09:23:10;;;;;;;2.75;1.73;;;;;;;;;;4996168;28;20410;-61
2021/08/19 09:25:40;;;;;;;2.90;1.50;;;;;;;;;;5013182;28;20876;-60
2021/08/19 09:28:09;;;;;;;3.53;1.90;;;;;;;;;;5012683;28;20412;-60
2021/08/19 09:30:36;;;;;;;3.00;1.83;;;;;;;;;;5004650;28;20460;-59
2021/08/19 09:33:06;;;;;;;2.55;1.63;;;;;;;;;;5011955;28;20427;-61
2021/08/19 09:35:33;;;;;;;2.80;1.60;;;;;;;;;;5012956;28;20757;-60
2021/08/19 09:38:05;;;;;;;3.40;1.65;;;;;;;;;;5013410;28;20381;-60
2021/08/19 09:40:31;;;;;;;1.95;1.33;;;;;;;;;;5005854;28;20859;-60
2021/08/19 09:42:57;;;;;;;3.13;1.63;;;;;;;;;;5007944;28;20463;-60
2021/08/19 09:45:24;;;;;;;2.30;1.50;;;;;;;;;;5005614;28;20883;-59
2021/08/19 09:47:51;;;;;;;3.05;1.65;;;;;;;;;;5002539;28;20398;-59
2021/08/19 09:50:18;;;;;;;2.70;1.57;;;;;;;;;;5012071;28;20377;-60
2021/08/19 09:52:45;;;;;;;3.13;1.70;;;;;;;;;;5011603;28;20400;-59
2021/08/19 09:55:30;;;;;;;2.10;1.33;;;;;;;;;;5002282;28;20412;-57
2021/08/19 09:57:58;;;;;;;4.25;2.10;;;;;;;;;;4998632;28;20423;-60
2021/08/19 10:00:29;;;;;;;3.72;2.20;;;;;;;;;;5012837;28;20400;-60
2021/08/19 10:02:55;;;;;;;4.82;1.88;;;;;;;;;;4994274;28;20430;-60
2021/08/19 10:05:21;;;;;;;3.80;1.92;;;;;;;;;;5008516;28;20395;-59
2021/08/19 10:07:47;;;;;;;3.30;1.73;;;;;;;;;;4999814;28;20385;-59
2021/08/19 10:10:13;;;;;;;4.80;2.08;;;;;;;;;;5000368;28;20822;-59
2021/08/19 10:12:47;;;;;;;3.88;1.63;;;;;;;;;;5006501;28;20422;-59
2021/08/19 10:15:14;;;;;;;3.30;1.60;;;;;;;;;;5005722;28;20488;-59
2021/08/19 10:17:42;;;;;;;6.55;1.80;;;;;;;;;;5004166;28;20493;-60
2021/08/19 10:20:09;;;;;;;2.63;1.65;;;;;;;;;;5006379;28;20451;-60
2021/08/19 10:22:35;;;;;;;3.53;1.88;;;;;;;;;;4994489;28;20498;-60
2021/08/19 10:25:02;;;;;;;2.97;1.70;;;;;;;;;;5008034;28;20467;-60
2021/08/19 10:27:29;;;;;;;2.35;1.52;;;;;;;;;;5004164;28;20409;-60
2021/08/19 10:29:59;;;;;;;2.85;1.73;;;;;;;;;;5005555;28;20737;-58
2021/08/19 10:32:35;;;;;;;2.60;1.60;;;;;;;;;;5002675;28;20825;-60
2021/08/19 10:35:04;;;;;;;2.50;1.60;;;;;;;;;;5012085;28;20424;-59
2021/08/19 10:37:45;;;;;;;3.42;1.85;;;;;;;;;;5003372;28;20390;-60
2021/08/19 10:40:23;;;;;;;4.93;2.10;;;;;;;;;;5008631;28;20388;-58
2021/08/19 10:42:51;;;;;;;3.30;2.00;;;;;;;;;;5012824;28;20411;-60
2021/08/19 10:45:29;;;;;;;2.92;1.80;;;;;;;;;;4999342;28;20737;-60
2021/08/19 10:47:55;;;;;;;4.90;1.77;;;;;;;;;;4997580;28;20525;-60
2021/08/19 10:50:22;;;;;;;2.60;1.42;;;;;;;;;;5001131;28;20724;-61
2021/08/19 10:52:48;;;;;;;3.42;1.88;;;;;;;;;;4999893;28;20615;-60
2021/08/19 10:55:15;;;;;;;2.17;1.40;;;;;;;;;;5010926;28;20475;-57
2021/08/19 10:57:48;;;;;;;3.20;1.70;;;;;;;;;;5009683;28;20376;-55
2021/08/19 11:00:14;;;;;;;2.50;1.30;;;;;;;;;;5011072;28;20389;-60
2021/08/19 11:02:41;;;;;;;2.27;1.50;;;;;;;;;;4996361;28;20910;-59
2021/08/19 11:05:30;;;;;;;3.85;1.90;;;;;;;;;;5004315;28;20454;-58
2021/08/19 11:07:59;;;;;;;3.13;1.33;;;;;;;;;;5001421;28;20377;-59
2021/08/19 11:10:35;;;;;;;3.42;1.42;;;;;;;;;;4998805;28;20822;-59
2021/08/19 11:13:05;;;;;;;3.47;1.70;;;;;;;;;;5003571;28;20378;-59
2021/08/19 11:15:32;;;;;;;2.17;1.33;;;;;;;;;;5005296;28;20381;-59
2021/08/19 11:17:59;;;;;;;2.97;1.63;;;;;;;;;;5001143;28;20396;-58
2021/08/19 11:20:26;;;;;;;3.40;1.67;;;;;;;;;;4997819;28;20401;-58
2021/08/19 11:22:59;;;;;;;2.60;1.40;;;;;;;;;;5011794;28;20477;-58
2021/08/19 11:25:25;;;;;;;2.38;1.30;;;;;;;;;;5004566;28;20468;-58
2021/08/19 11:27:51;;;;;;;3.20;1.55;;;;;;;;;;5000360;28;20521;-58
2021/08/19 11:30:36;;;;;;;1.77;1.00;;;;;;;;;;5005216;28;20413;-58
2021/08/19 11:33:19;;;;;;;2.00;1.15;;;;;;;;;;5006177;28;20384;-59
2021/08/19 11:35:52;;;;;;;2.50;1.33;;;;;;;;;;5010151;28;20884;-60
2021/08/19 11:38:19;;;;;;;2.65;1.40;;;;;;;;;;4997382;28;20395;-59
2021/08/19 11:40:46;;;;;;;1.88;1.10;;;;;;;;;;5002213;28;20386;-59
2021/08/19 11:43:31;;;;;;;1.90;1.10;;;;;;;;;;5005001;28;20509;-58
2021/08/19 11:46:04;;;;;;;2.33;1.23;;;;;;;;;;5003828;28;20427;-58
2021/08/19 11:48:30;;;;;;;2.92;1.67;;;;;;;;;;4997942;28;20761;-60
2021/08/19 11:50:58;;;;;;;1.85;1.13;;;;;;;;;;4998322;28;20465;-60
2021/08/19 11:53:24;;;;;;;3.22;1.50;;;;;;;;;;5004760;28;20406;-58
2021/08/19 11:55:51;;;;;;;3.42;1.50;;;;;;;;;;5004389;28;20439;-60
2021/08/19 11:58:18;;;;;;;2.65;1.30;;;;;;;;;;5010872;28;20535;-59
2021/08/19 12:00:57;;;;;;;7.82;1.80;;;;;;;;;;5010932;28;20435;-60
2021/08/19 12:03:23;;;;;;;2.03;1.30;;;;;;;;;;4992654;28;20419;-60
2021/08/19 12:05:59;;;;;;;2.38;1.25;;;;;;;;;;5007757;28;20881;-58
2021/08/19 12:08:28;;;;;;;3.42;1.20;;;;;;;;;;5001315;28;20385;-59
2021/08/19 12:10:55;;;;;;;3.15;1.30;;;;;;;;;;4998745;28;20478;-58
2021/08/19 12:13:21;;;;;;;3.00;1.33;;;;;;;;;;5001000;28;20398;-60
2021/08/19 12:15:47;;;;;;;3.60;1.60;;;;;;;;;;5010367;28;20495;-60
2021/08/19 12:18:13;;;;;;;2.35;0.98;;;;;;;;;;5010187;28;20460;-58
2021/08/19 12:20:39;;;;;;;3.60;1.30;;;;;;;;;;4997394;28;20377;-59
2021/08/19 12:23:19;;;;;;;1.85;1.20;;;;;;;;;;4999503;28;20445;-58
2021/08/19 12:25:45;;;;;;;2.83;1.30;;;;;;;;;;5011179;28;20853;-57
2021/08/19 12:28:11;;;;;;;2.50;1.40;;;;;;;;;;5007459;28;20385;-60
2021/08/19 12:30:54;;;;;;;3.63;1.30;;;;;;;;;;4997477;28;20447;-58
2021/08/19 12:33:29;;;;;;;1.67;1.03;;;;;;;;;;5009387;28;20535;-59
2021/08/19 12:36:14;;;;;;;2.15;1.30;;;;;;;;;;5008995;28;20393;-56
2021/08/19 12:38:40;;;;;;;1.85;0.98;;;;;;;;;;5003577;28;20415;-59
2021/08/19 12:41:13;;;;;;;2.55;1.25;;;;;;;;;;5000883;28;20410;-60
2021/08/19 12:43:40;;;;;;;2.60;1.10;;;;;;;;;;5001615;28;20415;-56
2021/08/19 12:46:07;;;;;;;1.80;1.05;;;;;;;;;;5010018;28;20462;-59
2021/08/19 12:48:34;;;;;;;2.05;0.88;;;;;;;;;;5007124;28;20437;-59
2021/08/19 12:51:20;;;;;;;2.28;1.17;;;;;;;;;;5006824;28;20400;-58
2021/08/19 12:54:03;;;;;;;2.90;1.15;;;;;;;;;;5014238;28;20729;-57
2021/08/19 12:56:29;;;;;;;1.48;0.70;;;;;;;;;;5020257;28;20392;-59
2021/08/19 12:58:55;;;;;;;1.58;0.93;;;;;;;;;;5013252;28;20381;-57
2021/08/19 13:01:21;;;;;;;1.83;1.20;;;;;;;;;;5008164;28;20774;-58
2021/08/19 13:03:47;;;;;;;2.95;1.35;;;;;;;;;;4997875;28;20391;-59
2021/08/19 13:06:13;;;;;;;2.30;1.23;;;;;;;;;;5007394;28;20389;-59
2021/08/19 13:08:39;;;;;;;2.33;1.05;;;;;;;;;;5006645;28;20397;-60
2021/08/19 13:11:05;;;;;;;2.90;1.33;;;;;;;;;;5013844;28;20911;-58
2021/08/19 13:13:31;;;;;;;2.35;0.95;;;;;;;;;;5009258;28;20400;-59
2021/08/19 13:15:57;;;;;;;1.48;0.90;;;;;;;;;;4998949;28;20849;-57
2021/08/19 13:18:23;;;;;;;1.92;0.95;;;;;;;;;;5006155;28;20419;-57
2021/08/19 13:20:49;;;;;;;4.03;1.08;;;;;;;;;;5002769;28;20729;-59
2021/08/19 13:23:15;;;;;;;4.10;1.33;;;;;;;;;;5000182;28;20397;-57
2021/08/19 13:25:41;;;;;;;2.08;0.90;;;;;;;;;;5012473;28;20389;-61
2021/08/19 13:28:08;;;;;;;2.65;1.17;;;;;;;;;;5008344;28;20400;-59
2021/08/19 13:30:34;;;;;;;2.60;1.17;;;;;;;;;;5001442;28;20378;-60
2021/08/19 13:33:00;;;;;;;1.90;0.80;;;;;;;;;;5011852;28;20407;-60
2021/08/19 13:35:26;;;;;;;2.33;1.15;;;;;;;;;;5005353;28;20381;-60
2021/08/19 13:37:52;;;;;;;1.40;0.70;;;;;;;;;;5001397;28;20382;-58
2021/08/19 13:40:18;;;;;;;2.70;0.85;;;;;;;;;;5007341;28;20697;-59
2021/08/19 13:42:44;;;;;;;2.60;0.90;;;;;;;;;;4994038;28;20418;-60
2021/08/19 13:45:10;;;;;;;1.80;0.90;;;;;;;;;;5005347;28;20397;-59
2021/08/19 13:47:37;;;;;;;1.85;0.88;;;;;;;;;;5008821;28;20399;-61
2021/08/19 13:50:04;;;;;;;1.55;0.80;;;;;;;;;;5005728;28;20398;-61
2021/08/19 13:52:29;;;;;;;2.10;1.10;;;;;;;;;;5006239;28;20492;-58
2021/08/19 13:54:55;;;;;;;1.50;0.70;;;;;;;;;;5007080;28;20387;-59
2021/08/19 13:57:21;;;;;;;1.77;0.90;;;;;;;;;;5007955;28;20420;-58
2021/08/19 13:59:47;;;;;;;1.90;1.10;;;;;;;;;;5005073;28;20493;-59
2021/08/19 14:02:14;;;;;;;2.73;1.03;;;;;;;;;;5002628;28;20825;-58
2021/08/19 14:04:39;;;;;;;1.27;0.70;;;;;;;;;;4998072;28;20798;-60
2021/08/19 14:07:06;;;;;;;2.10;0.80;;;;;;;;;;5000877;28;20401;-60
2021/08/19 14:09:32;;;;;;;1.30;0.70;;;;;;;;;;5006662;28;20495;-61
2021/08/19 14:11:58;;;;;;;1.80;0.73;;;;;;;;;;5008595;28;21341;-61
2021/08/19 14:14:24;;;;;;;1.48;0.70;;;;;;;;;;5002346;28;20478;-61
2021/08/19 14:16:50;;;;;;;2.13;0.80;;;;;;;;;;5006671;28;20726;-61
2021/08/19 14:19:16;;;;;;;1.00;0.70;;;;;;;;;;4999294;28;20381;-61
2021/08/19 14:21:42;;;;;;;1.83;0.80;;;;;;;;;;5006703;28;20412;-59
2021/08/19 14:24:08;;;;;;;2.13;0.80;;;;;;;;;;5006447;28;20408;-60
2021/08/19 14:26:34;;;;;;;1.88;0.60;;;;;;;;;;5008916;28;20386;-60
2021/08/19 14:29:02;;;;;;;1.88;0.90;;;;;;;;;;5006530;28;20391;-59
2021/08/19 14:31:28;;;;;;;1.77;0.70;;;;;;;;;;4998919;28;20379;-61
2021/08/19 14:33:54;;;;;;;1.70;0.70;;;;;;;;;;5008955;28;20511;-61
2021/08/19 14:36:20;;;;;;;2.30;0.90;;;;;;;;;;5011831;28;20851;-60
2021/08/19 14:38:48;;;;;;;1.43;0.60;;;;;;;;;;5004779;28;20493;-60
2021/08/19 14:41:14;;;;;;;1.10;0.68;;;;;;;;;;5010726;28;20455;-61
2021/08/19 14:43:40;;;;;;;2.58;0.98;;;;;;;;;;5009930;28;20397;-60